Terminal Aerodrome Forecast
Issued by NWS Upton, NY

Home | Current Version | Previous Version | Text Only | Print | Product List | Glossary On
Versions: 1 2 3 4 5 6 7 8 9 10 11 12 13 14 15 16 17 18 19 20 21 22 23 24 25 26 27 28 29 30 31
657
FTUS41 KOKX 172332
TAFISP
TAF
KISP 172332Z 1800/1824 12007KT 1SM -SN BR BKN009 OVC025
      TEMPO 1800/1803 1/2SM -SNRA FG OVC005
     FM180300 10005KT 1/2SM SN FG VV003
     FM180600 02003KT 1/2SM SN VV003
     FM181000 31008KT P6SM BKN015 BKN035
     FM181300 32015G23KT P6SM FEW035
     FM181900 27008KT P6SM SKC
     FM182300 VRB03KT P6SM SKC=

USA.gov is the U.S. government's official web portal to all federal, state and local government web resources and services.